Jaguar Max — C6ZD7 — position and weather

sailwx.info

Track history (hours):
 
Tides and Currents Weather Stations Pressure Air Temp Water Temp Dewpoint Dewpoint Depression Visibility Wind Speed Wind Dir Waves Ship Positions

Jaguar Max

Last reported at 2018-Mar-29 03:38 UTC. Time now 2018-Apr-20 12:46 UTC.
Position S 33°06' E 035°48'.
Warning: this ship's position is 22 days out of date.

Length 229 m; draft 14.6 m.

Type: Cargo ship. MMSI: 311053300.

Date/timePositionNaut miles runAvg speedWind from/ knotsBaromVisibWave heightAir tempDewpointWater temp
2018-Mar-29 03:38S 33°06' E 035°48'2712.3
2018-Mar-29 01:29S 33°09' E 035°17'612.0
2018-Mar-29 01:00S 33°09' E 035°10'812.4
2018-Mar-29 00:22S 33°10' E 035°01'912.3
2018-Mar-28 23:39S 33°11' E 034°50'211.9
2018-Mar-28 23:29S 33°11' E 034°48'7412.1
2018-Mar-28 17:22S 33°19' E 033°20'411.8
2018-Mar-28 17:00S 33°19' E 033°15'811.9
2018-Mar-28 16:21S 33°20' E 033°06'512.0
2018-Mar-28 15:56S 33°21' E 032°60'511.8
2018-Mar-28 15:28S 33°21' E 032°53'712.0
2018-Mar-28 14:55S 33°22' E 032°45'2111.9
2018-Mar-28 13:09S 33°24' E 032°20'610.7
2018-Mar-28 12:36S 33°24' E 032°13'1 7.1
2018-Mar-28 12:24S 33°24' E 032°11'2711.4
2018-Mar-28 10:00S 33°28' E 031°39'611.6
2018-Mar-28 09:30S 33°28' E 031°32'2511.4
2018-Mar-28 07:18S 33°31' E 031°02'311.8
2018-Mar-28 07:00S 33°31' E 030°58'  
Track history (hours):
 
Tides and Currents Weather Stations Pressure Air Temp Water Temp Dewpoint Dewpoint Depression Visibility Wind Speed Wind Dir Waves Ship Positions

Jaguar Max

Last reported at 2018-Mar-29 03:38 UTC. Time now 2018-Apr-20 12:46 UTC.
Position S 33°06' E 035°48'.
Warning: this ship's position is 22 days out of date.

Length 229 m; draft 14.6 m.

Type: Cargo ship. MMSI: 311053300.

Date/timePositionNaut miles runAvg speedWind from/ knotsBaromVisibWave heightAir tempDewpointWater temp
2018-Mar-29 03:38S 33°06' E 035°48'2712.3
2018-Mar-29 01:29S 33°09' E 035°17'612.0
2018-Mar-29 01:00S 33°09' E 035°10'812.4
2018-Mar-29 00:22S 33°10' E 035°01'912.3
2018-Mar-28 23:39S 33°11' E 034°50'211.9
2018-Mar-28 23:29S 33°11' E 034°48'7412.1
2018-Mar-28 17:22S 33°19' E 033°20'411.8
2018-Mar-28 17:00S 33°19' E 033°15'811.9
2018-Mar-28 16:21S 33°20' E 033°06'512.0
2018-Mar-28 15:56S 33°21' E 032°60'511.8
2018-Mar-28 15:28S 33°21' E 032°53'712.0
2018-Mar-28 14:55S 33°22' E 032°45'2111.9
2018-Mar-28 13:09S 33°24' E 032°20'610.7
2018-Mar-28 12:36S 33°24' E 032°13'1 7.1
2018-Mar-28 12:24S 33°24' E 032°11'2711.4
2018-Mar-28 10:00S 33°28' E 031°39'611.6
2018-Mar-28 09:30S 33°28' E 031°32'2511.4
2018-Mar-28 07:18S 33°31' E 031°02'311.8
2018-Mar-28 07:00S 33°31' E 030°58'  

Dump ship's entire track history